Latest Weather Observations for Mackay Airport

IDQ60801

Issued at 3:05 pm EST Saturday 23 August 2014 (issued every 30 minutes, with the page automatically refreshed every 10 minutes)

About weather observations | Map of weather stations | Latest weather observations for QLD | Other Formats
Station Details ID: 033045 Name: MACKAY AERO Lat: -21.17 Lon: 149.18 Height: 4.7 m
Data from the previous 72 hours. | See also: Recent months at Mackay Airport
Date/Time
EST
Temp
°C
App
Temp
°C
Dew
Point
Rel
Hum
%
Delta-T
°C
Wind Press
QNH
hPa
Press
MSL
hPa
Rain
since 9 am
mm
Dir
 
Spd
km/h
Gust
km/h
Spd
kts
Gust
kts
23/03:00pm 21.0 17.9 14.4 66 3.8 ESE 24 28 13 15 1017.6 1017.6 0.0
23/02:30pm 21.2 18.2 14.8 67 3.8 ESE 24 32 13 17 1017.8 1017.8 0.0
23/02:00pm 21.3 17.6 14.9 67 3.8 ESE 28 33 15 18 1018.0 1018.0 0.0
23/01:30pm 21.6 18.8 15.4 68 3.7 ESE 24 30 13 16 1018.4 1018.4 0.0
23/01:00pm 21.3 18.0 14.9 67 3.8 ESE 26 32 14 17 1018.7 1018.7 0.0
23/12:30pm 21.3 18.9 16.3 73 3.0 E 24 32 13 17 1019.3 1019.3 0.0
23/12:00pm 22.0 19.8 16.9 73 3.1 E 24 30 13 16 1019.8 1019.8 0.0
23/11:30am 21.7 18.8 16.0 70 3.4 E 26 30 14 16 1020.1 1020.1 0.0
23/11:00am 21.2 19.3 15.1 68 3.6 E 19 24 10 13 1020.6 1020.6 0.0
23/10:30am 21.4 19.6 15.5 69 3.5 ESE 19 24 10 13 1021.1 1021.1 0.0
23/10:00am 21.4 19.6 15.5 69 3.5 SE 19 22 10 12 1021.3 1021.3 0.0
23/09:30am 20.5 18.4 14.8 70 3.3 S 19 24 10 13 1021.6 1021.6 0.0
23/09:00am 20.2 18.3 15.8 76 2.6 S 20 26 11 14 1021.7 1021.7 0.0
23/08:30am 18.6 17.7 15.8 84 1.7 S 15 20 8 11 1021.6 1021.6 0.0
23/08:00am 17.3 16.3 15.5 89 1.0 S 15 19 8 10 1021.2 1021.2 0.0
23/07:30am 16.3 16.0 15.5 95 0.5 SSW 11 15 6 8 1020.9 1020.9 0.0
23/07:00am 14.6 13.4 14.1 97 0.3 SW 13 17 7 9 1020.6 1020.6 0.0
23/06:30am 13.7 12.2 13.2 97 0.3 SW 13 17 7 9 1020.3 1020.3 0.0
23/06:00am 14.6 13.5 14.3 98 0.2 SSW 13 13 7 7 1020.2 1020.2 0.0
23/05:30am 13.0 12.1 12.7 98 0.2 SW 9 11 5 6 1019.7 1019.7 0.0
23/05:00am 12.2 10.6 11.7 97 0.3 SW 11 11 6 6 1019.3 1019.3 0.0
23/04:30am 12.9 12.0 12.6 98 0.2 SW 9 11 5 6 1019.0 1019.0 0.0
23/04:00am 13.0 11.4 12.7 98 0.2 SSW 13 15 7 8 1018.9 1018.9 0.0
23/03:30am 12.1 11.0 11.8 98 0.2 SW 9 11 5 6 1018.8 1018.8 0.0
23/03:00am 12.4 10.9 11.9 97 0.3 WSW 11 13 6 7 1019.0 1019.0 0.0
23/02:30am 12.2 10.3 11.7 97 0.3 SW 13 15 7 8 1019.4 1019.4 0.0
23/02:00am 12.7 11.6 12.1 96 0.3 SW 9 11 5 6 1019.6 1019.6 0.0
23/01:30am 13.3 11.7 12.8 97 0.3 SW 13 15 7 8 1019.7 1019.7 0.0
23/01:00am 12.6 11.1 11.8 95 0.4 WSW 11 13 6 7 1019.8 1019.8 0.0
23/12:30am 13.2 12.3 12.6 96 0.3 SW 9 11 5 6 1020.0 1020.0 0.0
23/12:00am 14.0 13.9 13.4 96 0.3 SSW 6 7 3 4 1020.0 1020.0 0.0
 
Date/Time
EST
Temp
°C
App
Temp
°C
Dew
Point
Rel
Hum
%
Delta-T
°C
Wind Press
QNH
hPa
Press
MSL
hPa
Rain
since 9 am
mm
Dir
 
Spd
km/h
Gust
km/h
Spd
kts
Gust
kts
22/11:30pm 13.5 12.3 12.7 95 0.4 SW 11 13 6 7 1020.4 1020.4 0.0
22/11:00pm 13.8 12.6 12.9 94 0.5 SSW 11 13 6 7 1020.6 1020.6 0.0
22/10:30pm 14.9 16.3 14.3 96 0.3 CALM 0 7 0 4 1020.6 1020.6 0.0
22/10:00pm 14.4 14.0 13.1 92 0.7 SSW 7 9 4 5 1020.5 1020.5 0.0
22/09:30pm 15.3 15.2 14.0 92 0.7 SSW 7 9 4 5 1020.6 1020.6 0.0
22/09:00pm 15.5 14.7 14.0 91 0.8 SSW 11 13 6 7 1020.6 1020.6 0.0
22/08:30pm 17.7 17.2 15.0 84 1.6 SE 11 13 6 7 1020.6 1020.6 0.0
22/08:00pm 18.5 18.1 16.1 86 1.4 ESE 13 17 7 9 1020.3 1020.3 0.0
22/07:30pm 18.7 17.9 16.1 85 1.5 ESE 15 19 8 10 1020.0 1020.0 0.0
22/07:00pm 18.8 17.5 15.9 83 1.7 ESE 17 20 9 11 1019.7 1019.7 0.0
22/06:30pm 18.9 17.1 15.6 81 1.9 ESE 19 24 10 13 1019.4 1019.4 0.0
22/06:00pm 19.1 16.8 15.6 80 2.1 ESE 22 28 12 15 1018.9 1018.9 0.0
22/05:30pm 19.7 16.2 15.4 76 2.5 ESE 28 35 15 19 1018.7 1018.7 0.0
22/05:00pm 20.3 17.4 15.1 72 3.1 SE 24 32 13 17 1018.7 1018.7 0.0
22/04:30pm 21.0 17.6 15.8 72 3.1 SE 28 35 15 19 1018.5 1018.5 0.0
22/04:00pm 21.3 17.1 15.6 70 3.4 ESE 32 37 17 20 1018.4 1018.4 0.0
22/03:30pm 22.1 18.6 16.4 70 3.5 SE 30 37 16 20 1018.4 1018.4 0.0
22/03:00pm 22.1 18.0 15.9 68 3.7 ESE 32 39 17 21 1018.5 1018.5 0.0
22/02:30pm 21.8 17.9 15.4 67 3.8 ESE 30 37 16 20 1018.7 1018.7 0.0
22/02:00pm 22.3 18.9 15.9 67 3.8 ESE 28 35 15 19 1018.7 1018.7 0.0
22/01:30pm 21.9 18.3 16.2 70 3.4 ESE 30 35 16 19 1019.2 1019.2 0.0
22/01:00pm 22.0 18.4 16.3 70 3.4 ESE 30 37 16 20 1019.7 1019.7 0.0
22/12:30pm 22.7 19.0 16.9 70 3.6 ESE 32 37 17 20 1020.0 1020.0 0.0
22/12:00pm 22.3 19.4 16.1 68 3.7 ESE 26 32 14 17 1020.5 1020.5 0.0
22/11:30am 21.9 18.4 15.5 67 3.8 SE 28 37 15 20 1021.1 1021.1 0.0
22/11:00am 21.2 18.1 15.7 71 3.3 SE 26 33 14 18 1021.5 1021.5 0.0
22/10:30am 20.9 19.0 15.2 70 3.4 SSE 19 24 10 13 1021.9 1021.9 0.0
22/10:00am 20.6 18.6 15.4 72 3.1 SSE 20 28 11 15 1022.0 1022.0 0.0
22/09:30am 20.0 18.4 16.0 78 2.4 S 19 24 10 13 1022.0 1022.0 0.0
22/09:00am 18.7 16.6 15.2 80 2.0 S 20 26 11 14 1021.9 1021.9 0.0
22/08:30am 18.2 16.3 15.1 82 1.8 S 19 26 10 14 1021.6 1021.6 0.0
22/08:00am 17.9 16.0 15.3 85 1.5 S 19 26 10 14 1021.2 1021.2 0.0
22/07:30am 17.2 15.2 15.0 87 1.3 S 19 24 10 13 1021.0 1021.0 0.0
22/07:00am 16.8 15.7 15.2 90 0.9 S 15 19 8 10 1020.8 1020.8 0.0
22/06:30am 16.5 16.8 14.9 90 0.9 S 7 11 4 6 1020.4 1020.4 0.0
22/06:00am 16.6 15.4 15.0 90 0.9 S 15 20 8 11 1019.8 1019.8 0.0
22/05:30am 16.4 14.8 14.9 91 0.9 S 17 20 9 11 1019.3 1019.3 0.0
22/05:00am 16.3 15.1 15.0 92 0.7 S 15 20 8 11 1018.9 1018.9 0.0
22/04:30am 15.8 14.6 15.0 95 0.5 S 15 19 8 10 1018.4 1018.4 0.0
22/04:00am 15.2 14.3 14.9 98 0.2 SSW 13 17 7 9 1018.6 1018.6 0.0
22/03:30am 13.7 13.4 13.2 97 0.3 S 7 9 4 5 1018.6 1018.6 0.0
22/03:00am 12.9 11.8 12.1 95 0.4 SSW 9 11 5 6 1018.7 1018.7 0.0
22/02:30am 13.0 12.0 12.2 95 0.4 SSW 9 11 5 6 1018.9 1018.9 0.0
22/02:00am 13.5 11.1 12.7 95 0.4 SSW 17 19 9 10 1019.1 1019.1 0.0
22/01:56am 13.5 11.5 12.7 95 0.4 SW 15 19 8 10 1019.2 1019.2 0.0
22/01:30am 13.5 11.9 12.9 96 0.3 WSW 13 15 7 8 1019.4 1019.4 0.0
22/01:23am 13.0 11.2 12.2 95 0.4 WSW 13 15 7 8 1019.5 1019.5 0.0
22/01:00am 13.0 11.9 12.1 94 0.5 WSW 9 13 5 7 1019.6 1019.6 0.0
22/12:32am 14.2 12.5 12.4 89 1.0 SSW 13 15 7 8 1019.8 1019.8 0.0
22/12:30am 14.4 12.7 12.6 89 1.0 SSW 13 17 7 9 1019.7 1019.7 0.0
22/12:00am 18.5 16.6 17.7 95 0.5 SE 24 32 13 17 1019.7 1019.7 0.0
 
Date/Time
EST
Temp
°C
App
Temp
°C
Dew
Point
Rel
Hum
%
Delta-T
°C
Wind Press
QNH
hPa
Press
MSL
hPa
Rain
since 9 am
mm
Dir
 
Spd
km/h
Gust
km/h
Spd
kts
Gust
kts
21/11:30pm 14.1 13.1 13.3 95 0.4 SW 11 13 6 7 1020.0 1020.0 0.0
21/11:23pm 13.6 12.7 12.7 94 0.5 SSW 9 13 5 7 1020.1 1020.1 0.0
21/11:00pm 13.9 13.1 13.0 94 0.5 SW 9 11 5 6 1020.1 1020.1 0.0
21/10:30pm 13.9 13.0 12.6 92 0.7 SW 9 11 5 6 1020.2 1020.2 0.0
21/10:00pm 13.8 12.9 12.7 93 0.6 SW 9 11 5 6 1020.1 1020.1 0.0
21/09:30pm 13.9 12.6 12.5 91 0.8 SW 11 13 6 7 1020.1 1020.1 0.0
21/09:00pm 15.7 14.4 13.7 88 1.1 S 13 15 7 8 1020.1 1020.1 0.0
21/08:30pm 17.8 17.4 15.1 84 1.6 ESE 11 13 6 7 1019.9 1019.9 0.0
21/08:00pm 17.9 17.4 15.0 83 1.7 E 11 13 6 7 1019.7 1019.7 0.0
21/07:30pm 17.9 17.4 14.8 82 1.8 E 11 13 6 7 1019.4 1019.4 0.0
21/07:00pm 18.0 17.4 14.7 81 1.9 E 11 13 6 7 1019.0 1019.0 0.0
21/06:30pm 18.2 17.6 14.7 80 2.0 E 11 15 6 8 1018.6 1018.6 0.0
21/06:00pm 18.6 17.8 15.1 80 2.0 E 13 17 7 9 1018.3 1018.3 0.0
21/05:30pm 19.5 17.8 14.7 74 2.8 E 17 19 9 10 1017.9 1017.9 0.0
21/05:00pm 20.2 18.2 15.0 72 3.0 ESE 19 22 10 12 1017.7 1017.7 0.0
21/04:30pm 20.6 18.3 14.7 69 3.5 ESE 20 26 11 14 1017.5 1017.5 0.0
21/04:00pm 20.7 18.0 14.6 68 3.6 ESE 22 26 12 14 1017.3 1017.3 0.0
21/03:30pm 21.1 18.9 15.0 68 3.6 ESE 20 26 11 14 1017.1 1017.1 0.0
21/03:00pm 21.3 18.3 14.9 67 3.8 ESE 24 28 13 15 1017.2 1017.2 0.0
21/02:30pm 21.4 19.0 15.3 68 3.6 ESE 22 30 12 16 1017.3 1017.3 0.0
21/02:00pm 21.4 18.5 15.0 67 3.8 ESE 24 30 13 16 1017.6 1017.6 0.0
21/01:30pm 21.3 18.6 14.5 65 4.0 ESE 22 28 12 15 1017.8 1017.8 0.0
21/01:00pm 21.1 18.6 14.0 64 4.1 ESE 20 26 11 14 1018.4 1018.4 0.0
21/12:30pm 21.8 19.2 14.9 65 4.1 ESE 22 30 12 16 1018.7 1018.7 0.0
21/12:00pm 21.1 18.7 14.3 65 4.0 SE 20 28 11 15 1019.1 1019.1 0.0
21/11:30am 21.5 18.8 14.6 65 4.0 ESE 22 26 12 14 1019.6 1019.6 0.0
21/11:00am 21.6 18.9 13.5 60 4.7 SE 20 28 11 15 1020.0 1020.0 0.0
21/10:30am 21.4 18.4 12.5 57 5.0 SE 20 24 11 13 1020.1 1020.1 0.0
21/10:00am 21.3 18.9 13.7 62 4.4 SE 19 24 10 13 1020.3 1020.3 0.0
21/09:30am 20.4 18.0 13.8 66 3.8 SSE 19 26 10 14 1020.2 1020.2 0.0
21/09:00am 18.2 16.8 14.5 79 2.1 S 15 19 8 10 1020.0 1020.0 0.0
21/08:30am 16.2 14.4 13.3 83 1.6 SSW 15 19 8 10 1020.0 1020.0 0.0
21/08:00am 14.2 13.0 11.7 85 1.3 WSW 9 13 5 7 1019.8 1019.8 0.0
21/07:30am 12.4 11.0 10.8 90 0.8 WSW 9 11 5 6 1019.5 1019.5 0.0
21/07:00am 10.5 8.7 9.6 94 0.4 W 9 11 5 6 1019.2 1019.2 0.0
21/06:30am 9.2 7.0 8.0 92 0.6 W 9 11 5 6 1019.0 1019.0 0.0
21/06:00am 9.3 7.6 8.2 93 0.5 W 7 9 4 5 1018.6 1018.6 0.0
21/05:30am 9.4 7.7 8.2 92 0.6 W 7 11 4 6 1018.4 1018.4 0.0
21/05:00am 9.5 7.8 8.4 93 0.5 W 7 11 4 6 1018.1 1018.1 0.0
21/04:30am 9.2 7.0 7.8 91 0.7 W 9 11 5 6 1017.9 1017.9 0.0
21/04:00am 10.4 8.6 9.5 94 0.4 W 9 11 5 6 1018.0 1018.0 0.0
21/03:30am 10.0 8.1 9.1 94 0.4 WSW 9 11 5 6 1018.1 1018.1 0.0
21/03:00am 9.5 7.4 8.4 93 0.5 W 9 11 5 6 1018.3 1018.3 0.0
21/02:30am 9.8 8.1 8.4 91 0.7 W 7 9 4 5 1018.6 1018.6 0.0
21/02:00am 10.4 8.9 9.2 92 0.6 W 7 9 4 5 1018.9 1018.9 0.0
21/01:30am 10.7 9.3 9.5 92 0.6 WSW 7 9 4 5 1019.1 1019.1 0.0
21/01:00am 10.3 8.1 9.2 93 0.5 WSW 11 13 6 7 1019.5 1019.5 0.0
21/12:30am 10.7 10.2 9.5 92 0.6 WSW 2 6 1 3 1019.7 1019.7 0.0
21/12:00am 10.6 8.7 9.2 91 0.7 WSW 9 13 5 7 1019.9 1019.9 0.0
 
Date/Time
EST
Temp
°C
App
Temp
°C
Dew
Point
Rel
Hum
%
Delta-T
°C
Wind Press
QNH
hPa
Press
MSL
hPa
Rain
since 9 am
mm
Dir
 
Spd
km/h
Gust
km/h
Spd
kts
Gust
kts
20/11:30pm 10.8 9.3 9.1 89 0.8 WSW 7 9 4 5 1019.8 1019.8 0.0
20/11:00pm 12.1 10.4 9.8 86 1.2 SW 9 11 5 6 1020.0 1020.0 0.0
20/10:30pm 11.7 9.5 9.4 86 1.2 SW 11 13 6 7 1020.1 1020.1 0.0
20/10:03pm 11.9 10.1 9.5 85 1.2 SW 9 9 5 5 1020.1 1020.1 0.0
20/10:00pm 12.2 10.5 9.9 86 1.2 SW 9 11 5 6 1020.1 1020.1 0.0
20/09:49pm 12.6 10.6 10.3 86 1.2 SW 11 11 6 6 1020.0 1020.0 0.0
20/09:30pm 12.8 10.7 9.6 81 1.6 SSW 11 11 6 6 1020.1 1020.1 0.0
20/09:00pm 13.4 11.6 10.9 85 1.3 SW 11 13 6 7 1020.1 1020.1 0.0
20/08:30pm 14.4 13.4 10.2 76 2.2 NE 6 11 3 6 1019.9 1019.9 0.0
20/08:00pm 16.4 15.0 9.6 64 3.5 ENE 7 11 4 6 1019.6 1019.6 0.0
20/07:30pm 16.7 15.4 9.9 64 3.6 ENE 7 11 4 6 1019.3 1019.3 0.0
20/07:00pm 17.9 16.2 10.0 60 4.2 E 9 13 5 7 1019.0 1019.0 0.0
20/06:30pm 18.3 15.9 9.9 58 4.5 E 13 15 7 8 1018.4 1018.4 0.0
20/06:00pm 18.6 16.4 10.7 60 4.3 E 13 17 7 9 1018.0 1018.0 0.0
20/05:30pm 19.6 16.4 10.0 54 5.1 E 17 22 9 12 1017.7 1017.7 0.0
20/05:00pm 20.4 17.2 11.9 58 4.7 E 20 24 11 13 1017.3 1017.3 0.0
20/04:30pm 20.5 17.3 12.0 58 4.7 E 20 24 11 13 1017.1 1017.1 0.0
20/04:00pm 21.2 18.2 12.6 58 4.9 E 20 28 11 15 1017.1 1017.1 0.0
20/03:30pm 21.4 17.6 12.5 57 5.0 ESE 24 28 13 15 1017.1 1017.1 0.0

Other Formats:

Comma delimited format used in spreadsheet applications
http://www.bom.gov.au/fwo/IDQ60801/IDQ60801.95367.axf

JavaScript Object Notation format (JSON) in row-major order
http://www.bom.gov.au/fwo/IDQ60801/IDQ60801.95367.json